Time;durP1;ratioP1;P1;durP2;ratioP2;P2;SDS_P1;SDS_P2;PMS_P1;PMS_P2;Temp;Humidity;BMP_temperature;BMP_pressure;BME280_temperature;BME280_humidity;BME280_pressure;Samples;Min_cycle;Max_cycle;Signal;HPM_P1;HPM_P2
2023/06/30 00:02:59;;;;;;;15.20;9.20;;;;;;;16.01;70.03;98303.10;435474;1251;111911;-42
2023/06/30 00:13:09;;;;;;;12.90;8.00;;;;;;;15.98;70.19;98298.15;435313;1251;107659;-43
2023/06/30 00:23:17;;;;;;;14.10;9.60;;;;;;;15.99;70.38;98289.61;435324;1251;99214;-42
2023/06/30 00:33:24;;;;;;;18.00;12.80;;;;;;;15.87;70.67;98284.80;435413;1251;108522;-42
2023/06/30 00:43:31;;;;;;;16.10;12.10;;;;;;;15.74;71.03;98274.08;435230;1251;99214;-43
2023/06/30 00:53:38;;;;;;;14.90;11.50;;;;;;;15.59;71.04;98266.96;435247;1254;112967;-42
2023/06/30 01:03:51;;;;;;;19.80;12.40;;;;;;;15.38;71.26;98256.61;435192;1253;108395;-44
2023/06/30 01:14:00;;;;;;;24.70;13.60;;;;;;;15.19;71.64;98243.96;435455;1251;98449;-43
2023/06/30 01:24:10;;;;;;;26.80;13.00;;;;;;;15.08;72.08;98241.73;436131;1246;106940;-42
2023/06/30 01:34:17;;;;;;;19.40;14.70;;;;;;;14.93;72.43;98233.33;435223;1253;99160;-42
2023/06/30 01:44:24;;;;;;;20.20;12.90;;;;;;;14.80;72.85;98228.05;435286;1253;111491;-43
2023/06/30 01:54:30;;;;;;;17.80;13.10;;;;;;;14.75;73.21;98228.74;435216;1253;108025;-43
2023/06/30 02:04:36;;;;;;;17.30;14.00;;;;;;;14.52;73.43;98236.50;435278;1250;98709;-43
2023/06/30 02:14:42;;;;;;;18.00;13.00;;;;;;;14.38;73.83;98237.41;435176;1254;108225;-42
2023/06/30 02:24:48;;;;;;;22.30;14.40;;;;;;;14.42;74.18;98232.58;435274;1253;98820;-44
2023/06/30 02:34:55;;;;;;;20.30;12.40;;;;;;;14.52;74.48;98233.00;435196;1250;111675;-43
2023/06/30 02:45:01;;;;;;;22.20;13.10;;;;;;;14.57;74.50;98221.13;435484;1253;108059;-43
2023/06/30 02:55:08;;;;;;;17.10;12.50;;;;;;;14.70;74.88;98218.80;435339;1250;99240;-43
2023/06/30 03:05:16;;;;;;;16.90;12.20;;;;;;;14.87;75.01;98213.84;435338;1251;106720;-43
2023/06/30 03:15:22;;;;;;;22.80;14.10;;;;;;;15.06;75.16;98212.28;435252;1253;98810;-41
2023/06/30 03:25:28;;;;;;;28.10;13.50;;;;;;;16.46;74.80;98208.38;435169;1251;290304;-41
2023/06/30 03:35:34;;;;;;;14.10;12.50;;;;;;;17.93;73.46;98207.25;435377;1251;108177;-42
2023/06/30 03:45:41;;;;;;;16.70;11.80;;;;;;;19.01;72.22;98199.77;435325;1253;99186;-42
2023/06/30 03:55:48;;;;;;;13.10;11.10;;;;;;;19.78;71.03;98197.79;435312;1250;108058;-43
2023/06/30 04:05:55;;;;;;;15.80;9.50;;;;;;;20.72;69.89;98189.32;435428;1250;97973;-44
2023/06/30 04:16:02;;;;;;;14.60;10.00;;;;;;;21.56;68.51;98191.45;435461;1254;110795;-43
2023/06/30 04:26:09;;;;;;;18.60;10.70;;;;;;;22.19;67.08;98188.55;435465;1250;108127;-42
2023/06/30 04:36:20;;;;;;;13.60;10.60;;;;;;;22.04;66.00;98187.02;435370;1253;99253;-43
2023/06/30 04:56:33;;;;;;;15.90;11.40;;;;;;;22.54;64.23;98179.00;435231;1251;98482;-43
2023/06/30 05:06:39;;;;;;;18.80;13.10;;;;;;;21.04;64.26;98174.10;435419;1253;113573;-43
2023/06/30 05:16:44;;;;;;;15.80;11.00;;;;;;;21.77;64.57;98162.14;435213;1254;110437;-43
2023/06/30 05:26:53;;;;;;;16.60;10.40;;;;;;;23.05;63.31;98157.12;435535;1251;99186;-43
2023/06/30 05:47:03;;;;;;;24.70;11.80;;;;;;;23.19;62.42;98155.71;435267;1251;98032;-41
2023/06/30 05:57:11;;;;;;;20.60;10.50;;;;;;;23.84;62.34;98157.81;435214;1254;111334;-42
2023/06/30 06:07:17;;;;;;;17.00;10.10;;;;;;;23.57;61.27;98157.78;435333;1249;107779;-42
2023/06/30 06:17:24;;;;;;;25.70;9.30;;;;;;;23.56;61.95;98158.58;435275;1254;99739;-42
2023/06/30 06:37:34;;;;;;;8.20;6.50;;;;;;;23.68;61.62;98158.55;435258;1254;99301;-42
2023/06/30 06:47:57;;;;;;;;;;;;;;;23.54;60.99;98153.13;435302;1254;110995;-42
2023/06/30 06:58:04;;;;;;;7.00;5.40;;;;;;;23.39;61.12;98157.19;435293;1251;108191;-42
2023/06/30 07:08:09;;;;;;;6.60;6.00;;;;;;;23.11;61.13;98166.41;435345;1249;97937;-42
2023/06/30 07:18:17;;;;;;;11.10;5.70;;;;;;;22.78;61.06;98169.62;435407;1251;107487;-43
2023/06/30 07:28:25;;;;;;;9.50;6.60;;;;;;;22.51;61.38;98165.48;435387;1251;98838;-44
2023/06/30 07:48:38;;;;;;;12.10;7.50;;;;;;;22.46;61.61;98158.44;435371;1251;107527;-43
2023/06/30 07:58:44;;;;;;;10.50;7.30;;;;;;;22.48;61.63;98159.10;435286;1251;99110;-43
2023/06/30 08:08:50;;;;;;;12.60;8.70;;;;;;;22.54;61.78;98142.33;435393;1253;109042;-42
2023/06/30 08:18:56;;;;;;;12.90;8.20;;;;;;;22.78;61.64;98135.91;435325;1251;99226;-43
2023/06/30 08:29:03;;;;;;;12.60;7.40;;;;;;;23.17;61.90;98134.27;435264;1254;111718;-40
2023/06/30 08:39:09;;;;;;;10.70;8.40;;;;;;;23.77;61.50;98133.95;435356;1251;107853;-41
2023/06/30 08:49:15;;;;;;;11.10;7.50;;;;;;;23.87;60.50;98137.51;435241;1254;98814;-41
2023/06/30 08:59:23;;;;;;;9.20;6.50;;;;;;;24.17;60.42;98135.22;435261;1251;108540;-41
2023/06/30 09:09:32;;;;;;;10.40;6.60;;;;;;;24.76;59.95;98125.20;435206;1251;98209;-42
2023/06/30 09:19:40;;;;;;;11.40;7.10;;;;;;;25.35;59.17;98124.68;435338;1254;111873;-41
2023/06/30 09:29:49;;;;;;;6.90;5.50;;;;;;;25.94;58.73;98123.56;435391;1253;107545;-41
2023/06/30 09:39:57;;;;;;;7.50;6.60;;;;;;;26.47;57.95;98129.41;435208;1250;97979;-42
2023/06/30 09:50:05;;;;;;;7.70;4.00;;;;;;;26.98;56.99;98125.19;435349;1253;108297;-42
2023/06/30 10:00:16;;;;;;;6.40;4.70;;;;;;;27.49;55.48;98116.95;435365;1254;98634;-42
2023/06/30 10:20:47;;;;;;;11.80;4.00;;;;;;;28.29;53.14;98105.89;435280;1251;107710;-43
2023/06/30 10:30:53;;;;;;;4.90;3.10;;;;;;;28.60;51.52;98100.51;435325;1251;98742;-42
2023/06/30 10:41:12;;;;;;;6.40;3.40;;;;;;;28.88;50.62;98087.79;435438;1251;108751;-42
2023/06/30 10:51:18;;;;;;;8.50;2.90;;;;;;;28.99;49.82;98086.50;435281;1253;99303;-43
2023/06/30 11:01:27;;;;;;;6.40;2.80;;;;;;;29.00;48.74;98084.58;435495;1253;112721;-43
2023/06/30 11:11:48;;;;;;;2.90;2.40;;;;;;;28.82;47.88;98073.12;435214;1250;108052;-43
2023/06/30 11:22:25;;;;;;;5.50;3.10;;;;;;;28.89;47.20;98074.83;435395;1250;99314;-43
2023/06/30 11:42:45;;;;;;;4.70;2.20;;;;;;;29.03;46.00;98054.28;435301;1250;99234;-42
2023/06/30 11:52:51;;;;;;;3.60;2.50;;;;;;;28.70;45.60;98045.49;435180;1253;111315;-45
2023/06/30 12:02:59;;;;;;;7.60;2.50;;;;;;;29.12;45.15;98044.00;435343;1253;108463;-43
2023/06/30 12:13:06;;;;;;;6.10;2.80;;;;;;;28.93;44.31;98034.52;435455;1250;99268;-43
2023/06/30 12:23:13;;;;;;;2.90;2.50;;;;;;;28.76;44.67;98028.65;435416;1253;107657;-42
2023/06/30 12:33:22;;;;;;;5.00;2.50;;;;;;;29.12;44.01;98024.79;435483;1251;99320;-42
2023/06/30 12:43:28;;;;;;;4.30;2.30;;;;;;;29.70;42.35;98019.23;435348;1253;112025;-41
2023/06/30 12:53:34;;;;;;;6.10;2.20;;;;;;;29.55;41.54;98006.73;435427;1253;108287;-42
2023/06/30 13:03:40;;;;;;;2.80;1.90;;;;;;;29.54;41.22;98000.89;435376;1253;99330;-42
2023/06/30 13:13:46;;;;;;;3.50;2.10;;;;;;;29.37;41.50;97986.11;435476;1253;108225;-44
2023/06/30 13:23:52;;;;;;;2.10;1.90;;;;;;;29.47;41.40;97974.81;435392;1251;99224;-42
2023/06/30 13:33:58;;;;;;;2.80;2.40;;;;;;;29.40;41.16;97962.04;435445;1253;111770;-43
2023/06/30 13:44:05;;;;;;;3.50;2.60;;;;;;;29.18;42.06;97952.70;435432;1253;106563;-43
2023/06/30 13:54:11;;;;;;;5.00;3.00;;;;;;;29.13;45.13;97942.23;435413;1253;98830;-42
2023/06/30 14:04:17;;;;;;;3.40;2.50;;;;;;;29.14;42.51;97941.69;435326;1253;108249;-42
2023/06/30 14:14:24;;;;;;;4.20;2.70;;;;;;;28.79;41.71;97936.42;435384;1251;98898;-43
2023/06/30 14:24:30;;;;;;;7.60;2.70;;;;;;;28.40;42.21;97925.95;435362;1251;111383;-42
2023/06/30 14:34:37;;;;;;;3.20;2.60;;;;;;;28.01;42.57;97923.70;435363;1249;107597;-45
2023/06/30 14:44:43;;;;;;;4.00;2.50;;;;;;;27.78;43.20;97915.77;435464;1251;99369;-47
2023/06/30 14:54:48;;;;;;;;;;;;;;;27.73;42.73;97913.12;435363;1253;108266;-42
2023/06/30 15:04:54;;;;;;;2.40;2.20;;;;;;;27.47;42.48;97915.06;435445;1250;97979;-43
2023/06/30 15:15:01;;;;;;;6.50;2.90;;;;;;;27.24;42.46;97904.98;435360;1253;111558;-43
2023/06/30 15:35:28;;;;;;;6.00;2.60;;;;;;;27.03;43.15;97907.11;435570;1251;97921;-42
2023/06/30 15:45:34;;;;;;;2.40;2.20;;;;;;;26.73;43.32;97896.88;435300;1250;109003;-41
2023/06/30 16:05:46;;;;;;;4.60;2.50;;;;;;;26.40;43.87;97881.38;435380;1250;113399;-41
2023/06/30 16:15:54;;;;;;;8.00;2.90;;;;;;;26.19;44.23;97878.72;435468;1253;109399;-42
2023/06/30 16:26:00;;;;;;;4.10;2.80;;;;;;;25.95;44.88;97870.28;435377;1253;98811;-41
2023/06/30 16:46:14;;;;;;;4.20;3.00;;;;;;;25.66;45.95;97864.89;435272;1250;97985;-42
2023/06/30 16:56:20;;;;;;;4.50;3.30;;;;;;;25.39;46.98;97861.15;435535;1251;111682;-42
2023/06/30 17:16:29;;;;;;;7.00;4.40;;;;;;;24.83;47.44;97868.95;435397;1250;99218;-42
2023/06/30 17:26:35;;;;;;;10.30;5.20;;;;;;;24.59;47.98;97875.81;435484;1253;107782;-40
2023/06/30 17:46:45;;;;;;;9.30;4.70;;;;;;;23.48;50.06;97911.95;435478;1251;109755;-43
2023/06/30 17:56:51;;;;;;;13.90;5.00;;;;;;;22.68;51.49;97914.63;435497;1251;108642;-42
2023/06/30 18:07:06;;;;;;;8.50;6.00;;;;;;;22.15;52.58;97928.27;435426;1251;98008;-41
2023/06/30 18:27:21;;;;;;;8.20;5.70;;;;;;;21.30;55.19;97945.04;435322;1253;99261;-44
2023/06/30 18:37:24;;;;;;;9.90;6.40;;;;;;;21.05;56.53;97939.75;435326;1253;111497;-43
2023/06/30 18:57:37;;;;;;;11.30;6.10;;;;;;;20.80;58.57;97959.23;435418;1249;99408;-42
2023/06/30 19:07:43;;;;;;;9.10;5.60;;;;;;;20.57;58.97;97966.23;435153;1253;108967;-43
2023/06/30 19:17:49;;;;;;;6.50;5.10;;;;;;;20.25;59.90;97976.98;435275;1251;99252;-43
2023/06/30 19:27:57;;;;;;;7.00;5.80;;;;;;;19.94;61.17;97987.33;435387;1253;111635;-43
2023/06/30 19:38:03;;;;;;;;;;;;;;;19.75;62.54;97997.85;435276;1253;108801;-42
2023/06/30 19:58:12;;;;;;;7.70;6.70;;;;;;;19.31;64.54;97988.36;435317;1253;106624;-45
2023/06/30 20:08:19;;;;;;;10.50;6.40;;;;;;;19.18;65.48;97992.41;435327;1253;98852;-43
2023/06/30 20:28:32;;;;;;;8.30;6.80;;;;;;;18.88;67.12;98003.70;435248;1253;109855;-45
2023/06/30 20:38:39;;;;;;;13.60;6.80;;;;;;;18.89;67.95;98006.98;435426;1253;99209;-43
2023/06/30 20:48:46;;;;;;;8.00;6.20;;;;;;;18.88;68.38;97987.58;435226;1253;108143;-44
2023/06/30 20:58:54;;;;;;;8.80;6.50;;;;;;;18.79;68.74;97977.20;435349;1253;99251;-44
2023/06/30 21:09:02;;;;;;;11.30;7.60;;;;;;;18.70;69.27;97964.58;435160;1253;111632;-44
2023/06/30 21:29:12;;;;;;;9.30;8.30;;;;;;;18.63;70.20;97974.86;435461;1250;99253;-45
2023/06/30 21:49:22;;;;;;;13.40;8.60;;;;;;;18.53;71.18;97945.61;435288;1250;99220;-42
2023/06/30 21:59:28;;;;;;;12.30;9.30;;;;;;;18.46;71.53;97935.36;435437;1253;111875;-41
2023/06/30 22:19:40;;;;;;;11.60;9.10;;;;;;;18.40;72.67;97942.27;435253;1253;99244;-41
2023/06/30 22:29:46;;;;;;;13.80;10.20;;;;;;;18.36;73.10;97935.29;435325;1253;106483;-42
2023/06/30 22:39:52;;;;;;;10.70;9.10;;;;;;;18.33;73.32;97929.84;435267;1250;99244;-41
2023/06/30 22:50:00;;;;;;;9.70;8.90;;;;;;;18.34;73.57;97931.36;435238;1253;112326;-42
2023/06/30 23:00:09;;;;;;;11.80;10.50;;;;;;;18.19;73.78;97938.81;435371;1253;107615;-42
2023/06/30 23:10:16;;;;;;;12.50;9.00;;;;;;;18.14;74.43;97937.08;435256;1253;99193;-42
2023/06/30 23:30:28;;;;;;;10.40;8.60;;;;;;;18.25;75.11;97930.99;435274;1253;98910;-43
2023/06/30 23:40:35;;;;;;;16.20;10.20;;;;;;;18.22;75.38;97911.67;435343;1253;111183;-43
2023/06/30 23:50:42;;;;;;;10.30;9.30;;;;;;;18.17;75.73;97896.52;435266;1251;108003;-42
